Oyster Bay, Alabama
Current Conditions -  °F | °C
As of 7:35 AM on Saturday 20 Dec 2014 (Local Time) from KJKA Reporting Station
Drizzle Drizzle  
Wind Chill: 44°   Ceiling: 500
Heat Index: 48°   Visibility: 5mi
Dew Point: 47°   Wind: 7mph
Humidity: 99%   Direction: 30°NNE
Pressure: 30.12"   Gusts: NA
Location:  30.3794°N, 87.7151°W
Report Text: KJKA 201335Z AUTO 03006KT 5SM +DZ OVC005 09/09 A3012 RMK AO2 P0002 T00870085
Loading
Personal Weather Stations






























Interactive Weather Map New forecast layout! Learn more

10-Day Weather Forecast

Advertisements
Track Severe Weather on mobile